sensor_id;sensor_type;location;lat;lon;timestamp;pressure;altitude;pressure_sealevel;temperature;humidity
44044;BME280;29709;52.396;16.796;2023-02-28T00:02:18;103258.86;;;1.00;65.23
44044;BME280;29709;52.396;16.796;2023-02-28T00:05:32;103260.02;;;0.92;65.30
44044;BME280;29709;52.396;16.796;2023-02-28T00:08:45;103268.25;;;0.89;65.22
44044;BME280;29709;52.396;16.796;2023-02-28T00:11:59;103265.65;;;0.85;64.96
44044;BME280;29709;52.396;16.796;2023-02-28T00:15:12;103268.34;;;0.85;65.30
44044;BME280;29709;52.396;16.796;2023-02-28T00:18:26;103265.71;;;0.82;65.71
44044;BME280;29709;52.396;16.796;2023-02-28T00:21:39;103258.66;;;0.77;65.22
44044;BME280;29709;52.396;16.796;2023-02-28T00:24:53;103264.19;;;0.74;65.37
44044;BME280;29709;52.396;16.796;2023-02-28T00:28:07;103266.08;;;0.70;65.43
44044;BME280;29709;52.396;16.796;2023-02-28T00:31:21;103269.91;;;0.63;64.90
44044;BME280;29709;52.396;16.796;2023-02-28T00:34:34;103262.93;;;0.54;65.73
44044;BME280;29709;52.396;16.796;2023-02-28T00:37:51;103263.00;;;0.51;65.41
44044;BME280;29709;52.396;16.796;2023-02-28T00:41:05;103264.97;;;0.46;66.07
44044;BME280;29709;52.396;16.796;2023-02-28T00:44:19;103259.70;;;0.42;65.45
44044;BME280;29709;52.396;16.796;2023-02-28T00:47:34;103267.97;;;0.36;66.16
44044;BME280;29709;52.396;16.796;2023-02-28T00:50:51;103274.37;;;0.33;65.93
44044;BME280;29709;52.396;16.796;2023-02-28T00:54:04;103273.63;;;0.26;66.00
44044;BME280;29709;52.396;16.796;2023-02-28T00:57:18;103275.74;;;0.15;66.07
44044;BME280;29709;52.396;16.796;2023-02-28T01:00:31;103281.30;;;0.09;66.69
44044;BME280;29709;52.396;16.796;2023-02-28T01:03:45;103275.05;;;0.07;67.12
44044;BME280;29709;52.396;16.796;2023-02-28T01:06:58;103275.09;;;0.06;67.20
44044;BME280;29709;52.396;16.796;2023-02-28T01:10:12;103275.93;;;0.08;66.40
44044;BME280;29709;52.396;16.796;2023-02-28T01:13:27;103276.26;;;-0.05;66.81
44044;BME280;29709;52.396;16.796;2023-02-28T01:16:40;103264.70;;;-0.11;66.72
44044;BME280;29709;52.396;16.796;2023-02-28T01:19:55;103267.40;;;-0.10;66.61
44044;BME280;29709;52.396;16.796;2023-02-28T01:23:09;103267.63;;;-0.19;67.35
44044;BME280;29709;52.396;16.796;2023-02-28T01:26:22;103266.88;;;-0.25;67.27
44044;BME280;29709;52.396;16.796;2023-02-28T01:29:36;103264.13;;;-0.24;67.47
44044;BME280;29709;52.396;16.796;2023-02-28T01:32:49;103263.24;;;-0.24;67.31
44044;BME280;29709;52.396;16.796;2023-02-28T01:36:10;103265.16;;;-0.28;67.41
44044;BME280;29709;52.396;16.796;2023-02-28T01:39:25;103264.22;;;-0.27;67.29
44044;BME280;29709;52.396;16.796;2023-02-28T01:42:39;103267.86;;;-0.28;67.04
44044;BME280;29709;52.396;16.796;2023-02-28T01:45:54;103263.56;;;-0.37;66.89
44044;BME280;29709;52.396;16.796;2023-02-28T01:49:14;103258.29;;;-0.41;67.26
44044;BME280;29709;52.396;16.796;2023-02-28T01:52:30;103261.88;;;-0.41;66.87
44044;BME280;29709;52.396;16.796;2023-02-28T01:55:48;103263.82;;;-0.47;66.66
44044;BME280;29709;52.396;16.796;2023-02-28T01:59:04;103255.14;;;-0.60;67.38
44044;BME280;29709;52.396;16.796;2023-02-28T02:02:22;103256.07;;;-0.61;67.27
44044;BME280;29709;52.396;16.796;2023-02-28T02:05:38;103249.91;;;-0.68;67.54
44044;BME280;29709;52.396;16.796;2023-02-28T02:08:52;103251.72;;;-0.68;67.80
44044;BME280;29709;52.396;16.796;2023-02-28T02:12:18;103253.50;;;-0.67;67.44
44044;BME280;29709;52.396;16.796;2023-02-28T02:15:36;103246.50;;;-0.76;66.99
44044;BME280;29709;52.396;16.796;2023-02-28T02:18:54;103257.51;;;-0.85;66.65
44044;BME280;29709;52.396;16.796;2023-02-28T02:29:12;103251.86;;;-1.13;68.66
44044;BME280;29709;52.396;16.796;2023-02-28T02:36:01;103251.97;;;-1.19;69.37
44044;BME280;29709;52.396;16.796;2023-02-28T02:39:29;103250.98;;;-1.15;69.10
44044;BME280;29709;52.396;16.796;2023-02-28T02:46:14;103258.09;;;-1.11;69.17
44044;BME280;29709;52.396;16.796;2023-02-28T02:49:32;103256.29;;;-1.10;68.83
44044;BME280;29709;52.396;16.796;2023-02-28T02:52:51;103249.16;;;-1.13;68.41
44044;BME280;29709;52.396;16.796;2023-02-28T02:56:07;103248.27;;;-1.13;67.10
44044;BME280;29709;52.396;16.796;2023-02-28T02:59:22;103250.16;;;-1.19;68.08
44044;BME280;29709;52.396;16.796;2023-02-28T03:02:38;103245.80;;;-1.24;68.17
44044;BME280;29709;52.396;16.796;2023-02-28T03:05:53;103242.14;;;-1.22;68.06
44044;BME280;29709;52.396;16.796;2023-02-28T03:09:06;103246.66;;;-1.22;67.67
44044;BME280;29709;52.396;16.796;2023-02-28T03:12:20;103246.80;;;-1.30;67.20
44044;BME280;29709;52.396;16.796;2023-02-28T03:19:12;103250.50;;;-1.34;68.26
44044;BME280;29709;52.396;16.796;2023-02-28T03:25:56;103245.19;;;-1.38;67.85
44044;BME280;29709;52.396;16.796;2023-02-28T03:29:20;103245.14;;;-1.35;68.02
44044;BME280;29709;52.396;16.796;2023-02-28T03:32:40;103259.47;;;-1.33;67.81
44044;BME280;29709;52.396;16.796;2023-02-28T03:35:59;103250.50;;;-1.34;67.03
44044;BME280;29709;52.396;16.796;2023-02-28T03:39:22;103247.00;;;-1.39;67.54
44044;BME280;29709;52.396;16.796;2023-02-28T03:42:44;103251.43;;;-1.36;68.00
44044;BME280;29709;52.396;16.796;2023-02-28T03:46:01;103252.32;;;-1.36;67.21
44044;BME280;29709;52.396;16.796;2023-02-28T03:49:23;103254.16;;;-1.38;67.76
44044;BME280;29709;52.396;16.796;2023-02-28T03:59:36;103257.27;;;-1.58;67.58
44044;BME280;29709;52.396;16.796;2023-02-28T04:02:51;103254.70;;;-1.64;67.80
44044;BME280;29709;52.396;16.796;2023-02-28T04:06:17;103254.60;;;-1.59;68.13
44044;BME280;29709;52.396;16.796;2023-02-28T04:09:31;103259.92;;;-1.55;67.56
44044;BME280;29709;52.396;16.796;2023-02-28T04:12:44;103266.20;;;-1.54;67.43
44044;BME280;29709;52.396;16.796;2023-02-28T04:15:58;103275.28;;;-1.60;67.54
44044;BME280;29709;52.396;16.796;2023-02-28T04:19:13;103269.96;;;-1.63;67.95
44044;BME280;29709;52.396;16.796;2023-02-28T04:22:27;103275.34;;;-1.63;68.13
44044;BME280;29709;52.396;16.796;2023-02-28T04:25:41;103277.20;;;-1.65;68.20
44044;BME280;29709;52.396;16.796;2023-02-28T04:28:54;103279.97;;;-1.69;68.71
44044;BME280;29709;52.396;16.796;2023-02-28T04:32:08;103276.24;;;-1.62;68.66
44044;BME280;29709;52.396;16.796;2023-02-28T04:35:21;103286.24;;;-1.69;68.43
44044;BME280;29709;52.396;16.796;2023-02-28T04:38:36;103289.86;;;-1.70;68.43
44044;BME280;29709;52.396;16.796;2023-02-28T04:41:51;103282.69;;;-1.71;68.97
44044;BME280;29709;52.396;16.796;2023-02-28T04:45:05;103280.88;;;-1.70;68.06
44044;BME280;29709;52.396;16.796;2023-02-28T04:48:19;103287.23;;;-1.73;68.64
44044;BME280;29709;52.396;16.796;2023-02-28T04:51:32;103290.92;;;-1.77;67.83
44044;BME280;29709;52.396;16.796;2023-02-28T04:54:46;103291.73;;;-1.73;69.37
44044;BME280;29709;52.396;16.796;2023-02-28T04:57:59;103297.09;;;-1.72;68.82
44044;BME280;29709;52.396;16.796;2023-02-28T05:04:36;103292.49;;;-1.65;69.50
44044;BME280;29709;52.396;16.796;2023-02-28T05:07:50;103287.02;;;-1.62;68.74
44044;BME280;29709;52.396;16.796;2023-02-28T05:11:07;103294.12;;;-1.58;68.47
44044;BME280;29709;52.396;16.796;2023-02-28T05:14:21;103298.52;;;-1.53;69.14
44044;BME280;29709;52.396;16.796;2023-02-28T05:17:35;103302.93;;;-1.49;69.09
44044;BME280;29709;52.396;16.796;2023-02-28T05:20:48;103312.72;;;-1.43;69.71
44044;BME280;29709;52.396;16.796;2023-02-28T05:24:04;103294.59;;;-1.36;68.58
44044;BME280;29709;52.396;16.796;2023-02-28T05:27:18;103304.53;;;-1.38;68.30
44044;BME280;29709;52.396;16.796;2023-02-28T05:30:32;103307.27;;;-1.40;67.99
44044;BME280;29709;52.396;16.796;2023-02-28T05:33:46;103301.94;;;-1.43;68.39
44044;BME280;29709;52.396;16.796;2023-02-28T05:36:59;103308.22;;;-1.42;68.42
44044;BME280;29709;52.396;16.796;2023-02-28T05:40:13;103323.51;;;-1.43;68.74
44044;BME280;29709;52.396;16.796;2023-02-28T05:43:27;103312.72;;;-1.43;69.04
44044;BME280;29709;52.396;16.796;2023-02-28T05:46:41;103313.58;;;-1.41;69.19
44044;BME280;29709;52.396;16.796;2023-02-28T05:49:54;103324.40;;;-1.42;67.82
44044;BME280;29709;52.396;16.796;2023-02-28T05:53:08;103320.85;;;-1.46;68.06
44044;BME280;29709;52.396;16.796;2023-02-28T05:56:21;103328.09;;;-1.48;67.65
44044;BME280;29709;52.396;16.796;2023-02-28T05:59:35;103326.28;;;-1.48;68.14
44044;BME280;29709;52.396;16.796;2023-02-28T06:02:52;103335.48;;;-1.56;67.71
44044;BME280;29709;52.396;16.796;2023-02-28T06:06:12;103333.85;;;-1.68;68.89
44044;BME280;29709;52.396;16.796;2023-02-28T06:09:26;103331.19;;;-1.69;70.43
44044;BME280;29709;52.396;16.796;2023-02-28T06:12:40;103341.05;;;-1.68;70.44
44044;BME280;29709;52.396;16.796;2023-02-28T06:15:54;103350.72;;;-1.57;70.59
44044;BME280;29709;52.396;16.796;2023-02-28T06:19:09;103348.00;;;-1.54;71.28
44044;BME280;29709;52.396;16.796;2023-02-28T06:22:23;103343.14;;;-1.36;71.20
44044;BME280;29709;52.396;16.796;2023-02-28T06:25:36;103340.20;;;-1.23;71.82
44044;BME280;29709;52.396;16.796;2023-02-28T06:28:50;103332.55;;;-1.01;71.44
44044;BME280;29709;52.396;16.796;2023-02-28T06:32:04;103338.95;;;-0.65;71.10
44044;BME280;29709;52.396;16.796;2023-02-28T06:35:17;103339.30;;;-0.40;70.16
44044;BME280;29709;52.396;16.796;2023-02-28T06:38:32;103348.59;;;-0.14;69.70
44044;BME280;29709;52.396;16.796;2023-02-28T06:41:45;103343.97;;;-0.09;68.32
44044;BME280;29709;52.396;16.796;2023-02-28T06:45:00;103345.57;;;-0.02;68.32
44044;BME280;29709;52.396;16.796;2023-02-28T06:48:22;103351.60;;;0.09;68.16
44044;BME280;29709;52.396;16.796;2023-02-28T06:51:38;103342.23;;;0.24;68.01
44044;BME280;29709;52.396;16.796;2023-02-28T06:54:52;103357.52;;;0.25;67.94
44044;BME280;29709;52.396;16.796;2023-02-28T06:58:14;103348.44;;;0.27;67.75
44044;BME280;29709;52.396;16.796;2023-02-28T07:01:34;103357.52;;;0.25;67.67
44044;BME280;29709;52.396;16.796;2023-02-28T07:04:47;103357.57;;;0.23;68.11
44044;BME280;29709;52.396;16.796;2023-02-28T07:08:02;103357.60;;;0.22;68.24
44044;BME280;29709;52.396;16.796;2023-02-28T07:11:16;103353.73;;;0.32;68.55
44044;BME280;29709;52.396;16.796;2023-02-28T07:14:30;103352.39;;;0.48;68.45
44044;BME280;29709;52.396;16.796;2023-02-28T07:17:44;103345.46;;;0.71;68.20
44044;BME280;29709;52.396;16.796;2023-02-28T07:20:57;103343.84;;;0.96;68.41
44044;BME280;29709;52.396;16.796;2023-02-28T07:24:11;103343.38;;;1.11;67.71
44044;BME280;29709;52.396;16.796;2023-02-28T07:27:25;103349.95;;;1.03;67.77
44044;BME280;29709;52.396;16.796;2023-02-28T07:30:39;103351.02;;;0.97;67.74
44044;BME280;29709;52.396;16.796;2023-02-28T07:33:52;103357.07;;;1.07;68.45
44044;BME280;29709;52.396;16.796;2023-02-28T07:37:07;103357.05;;;1.38;67.82
44044;BME280;29709;52.396;16.796;2023-02-28T07:40:20;103364.56;;;1.58;67.26
44044;BME280;29709;52.396;16.796;2023-02-28T07:43:35;103357.83;;;1.41;67.55
44044;BME280;29709;52.396;16.796;2023-02-28T07:46:49;103357.55;;;1.51;67.51
44044;BME280;29709;52.396;16.796;2023-02-28T07:50:02;103366.56;;;1.51;67.06
44044;BME280;29709;52.396;16.796;2023-02-28T07:53:16;103361.46;;;1.70;67.25
44044;BME280;29709;52.396;16.796;2023-02-28T07:56:29;103368.84;;;1.93;67.11
44044;BME280;29709;52.396;16.796;2023-02-28T07:59:43;103365.54;;;2.11;66.79
44044;BME280;29709;52.396;16.796;2023-02-28T08:02:57;103362.78;;;2.13;66.40
44044;BME280;29709;52.396;16.796;2023-02-28T08:06:17;103361.72;;;2.17;66.20
44044;BME280;29709;52.396;16.796;2023-02-28T08:09:31;103362.87;;;2.36;66.12
44044;BME280;29709;52.396;16.796;2023-02-28T08:12:45;103365.64;;;2.61;66.10
44044;BME280;29709;52.396;16.796;2023-02-28T08:16:01;103364.19;;;2.76;65.09
44044;BME280;29709;52.396;16.796;2023-02-28T08:19:15;103361.59;;;2.73;64.58
44044;BME280;29709;52.396;16.796;2023-02-28T08:22:29;103365.84;;;2.80;64.72
44044;BME280;29709;52.396;16.796;2023-02-28T08:25:42;103367.40;;;2.87;63.93
44044;BME280;29709;52.396;16.796;2023-02-28T08:28:56;103360.76;;;2.96;63.67
44044;BME280;29709;52.396;16.796;2023-02-28T08:32:09;103359.18;;;3.13;63.67
44044;BME280;29709;52.396;16.796;2023-02-28T08:35:23;103359.73;;;3.23;63.77
44044;BME280;29709;52.396;16.796;2023-02-28T08:38:37;103355.34;;;3.19;62.59
44044;BME280;29709;52.396;16.796;2023-02-28T08:41:51;103353.50;;;3.19;62.09
44044;BME280;29709;52.396;16.796;2023-02-28T08:45:05;103362.13;;;3.31;62.09
44044;BME280;29709;52.396;16.796;2023-02-28T08:48:19;103363.19;;;3.50;62.24
44044;BME280;29709;52.396;16.796;2023-02-28T08:51:33;103352.56;;;3.44;61.85
44044;BME280;29709;52.396;16.796;2023-02-28T08:54:46;103361.91;;;3.37;61.09
44044;BME280;29709;52.396;16.796;2023-02-28T08:58:00;103367.81;;;3.48;61.44
44044;BME280;29709;52.396;16.796;2023-02-28T09:01:21;103356.01;;;3.71;61.53
44044;BME280;29709;52.396;16.796;2023-02-28T09:04:35;103353.50;;;3.88;61.63
44044;BME280;29709;52.396;16.796;2023-02-28T09:07:49;103361.84;;;4.05;61.77
44044;BME280;29709;52.396;16.796;2023-02-28T09:11:04;103348.80;;;4.14;61.38
44044;BME280;29709;52.396;16.796;2023-02-28T09:14:17;103340.33;;;4.21;60.89
44044;BME280;29709;52.396;16.796;2023-02-28T09:17:31;103349.16;;;4.26;59.97
44044;BME280;29709;52.396;16.796;2023-02-28T09:20:44;103351.71;;;4.31;59.61
44044;BME280;29709;52.396;16.796;2023-02-28T09:23:58;103347.53;;;4.22;58.49
44044;BME280;29709;52.396;16.796;2023-02-28T09:27:13;103353.64;;;4.07;57.95
44044;BME280;29709;52.396;16.796;2023-02-28T09:30:26;103347.87;;;3.93;57.74
44044;BME280;29709;52.396;16.796;2023-02-28T09:33:41;103353.95;;;3.99;57.96
44044;BME280;29709;52.396;16.796;2023-02-28T09:36:54;103351.15;;;4.23;58.68
44044;BME280;29709;52.396;16.796;2023-02-28T09:40:10;103349.56;;;4.39;57.66
44044;BME280;29709;52.396;16.796;2023-02-28T09:43:32;103353.64;;;4.49;57.68
44044;BME280;29709;52.396;16.796;2023-02-28T09:46:51;103357.45;;;4.66;56.98
44044;BME280;29709;52.396;16.796;2023-02-28T09:53:36;103363.78;;;4.66;55.03
44044;BME280;29709;52.396;16.796;2023-02-28T10:00:24;103373.06;;;5.03;54.85
44044;BME280;29709;52.396;16.796;2023-02-28T10:10:41;103371.75;;;5.11;51.88
44044;BME280;29709;52.396;16.796;2023-02-28T10:14:02;103365.61;;;5.06;51.91
44044;BME280;29709;52.396;16.796;2023-02-28T10:17:25;103369.12;;;5.29;52.06
44044;BME280;29709;52.396;16.796;2023-02-28T10:20:41;103367.28;;;5.48;51.85
44044;BME280;29709;52.396;16.796;2023-02-28T10:24:03;103366.19;;;5.33;50.71
44044;BME280;29709;52.396;16.796;2023-02-28T10:27:23;103362.85;;;5.27;51.52
44044;BME280;29709;52.396;16.796;2023-02-28T10:30:41;103366.70;;;5.60;51.92
44044;BME280;29709;52.396;16.796;2023-02-28T10:33:55;103364.70;;;5.83;52.87
44044;BME280;29709;52.396;16.796;2023-02-28T10:37:10;103354.10;;;5.76;50.75
44044;BME280;29709;52.396;16.796;2023-02-28T10:40:33;103346.80;;;5.58;49.40
44044;BME280;29709;52.396;16.796;2023-02-28T10:43:48;103343.49;;;5.33;50.49
44044;BME280;29709;52.396;16.796;2023-02-28T10:47:02;103346.84;;;5.19;49.57
44044;BME280;29709;52.396;16.796;2023-02-28T10:53:49;103342.02;;;5.44;49.20
44044;BME280;29709;52.396;16.796;2023-02-28T11:00:35;103333.38;;;5.35;49.21
44044;BME280;29709;52.396;16.796;2023-02-28T11:03:53;103329.19;;;5.46;48.02
44044;BME280;29709;52.396;16.796;2023-02-28T11:10:32;103326.66;;;5.61;48.04
44044;BME280;29709;52.396;16.796;2023-02-28T11:13:53;103316.99;;;5.72;48.43
44044;BME280;29709;52.396;16.796;2023-02-28T11:17:14;103317.75;;;5.95;47.78
44044;BME280;29709;52.396;16.796;2023-02-28T11:20:33;103313.82;;;6.00;48.42
44044;BME280;29709;52.396;16.796;2023-02-28T11:23:50;103312.02;;;6.18;46.46
44044;BME280;29709;52.396;16.796;2023-02-28T11:27:04;103314.56;;;6.21;47.35
44044;BME280;29709;52.396;16.796;2023-02-28T11:37:15;103317.40;;;6.54;47.38
44044;BME280;29709;52.396;16.796;2023-02-28T11:58:03;103290.36;;;6.83;47.59
44044;BME280;29709;52.396;16.796;2023-02-28T12:04:40;103267.99;;;6.92;45.63
44044;BME280;29709;52.396;16.796;2023-02-28T12:08:07;103266.70;;;6.99;46.25
44044;BME280;29709;52.396;16.796;2023-02-28T12:28:37;103253.27;;;6.44;43.31
44044;BME280;29709;52.396;16.796;2023-02-28T12:35:26;103251.59;;;6.42;43.75
44044;BME280;29709;52.396;16.796;2023-02-28T12:38:44;103252.26;;;6.47;42.91
44044;BME280;29709;52.396;16.796;2023-02-28T12:42:05;103243.04;;;6.65;44.25
44044;BME280;29709;52.396;16.796;2023-02-28T12:45:24;103248.89;;;6.75;44.35
44044;BME280;29709;52.396;16.796;2023-02-28T12:48:46;103240.56;;;6.93;43.41
44044;BME280;29709;52.396;16.796;2023-02-28T12:52:03;103243.34;;;7.09;44.23
44044;BME280;29709;52.396;16.796;2023-02-28T12:58:51;103238.48;;;6.99;42.92
44044;BME280;29709;52.396;16.796;2023-02-28T13:02:19;103233.70;;;7.02;43.20
44044;BME280;29709;52.396;16.796;2023-02-28T13:05:45;103237.93;;;7.08;42.66
44044;BME280;29709;52.396;16.796;2023-02-28T13:12:23;103225.13;;;6.92;41.02
44044;BME280;29709;52.396;16.796;2023-02-28T13:15:37;103224.67;;;6.84;42.74
44044;BME280;29709;52.396;16.796;2023-02-28T13:25:52;103220.64;;;7.07;42.71
44044;BME280;29709;52.396;16.796;2023-02-28T13:32:34;103210.67;;;6.90;42.72
44044;BME280;29709;52.396;16.796;2023-02-28T13:39:46;103203.28;;;6.59;41.46
44044;BME280;29709;52.396;16.796;2023-02-28T13:42:48;103200.65;;;6.58;41.04
44044;BME280;29709;52.396;16.796;2023-02-28T13:46:12;103202.54;;;6.56;42.90
44044;BME280;29709;52.396;16.796;2023-02-28T13:49:29;103194.45;;;6.54;42.99
44044;BME280;29709;52.396;16.796;2023-02-28T14:09:26;103166.11;;;6.73;43.82
44044;BME280;29709;52.396;16.796;2023-02-28T14:16:10;103166.20;;;6.87;44.22
44044;BME280;29709;52.396;16.796;2023-02-28T14:19:28;103168.23;;;6.83;43.96
44044;BME280;29709;52.396;16.796;2023-02-28T14:22:54;103171.84;;;6.68;45.09
44044;BME280;29709;52.396;16.796;2023-02-28T14:26:26;103163.04;;;6.79;45.57
44044;BME280;29709;52.396;16.796;2023-02-28T14:33:16;103174.85;;;6.79;45.09
44044;BME280;29709;52.396;16.796;2023-02-28T14:36:39;103174.30;;;6.73;45.48
44044;BME280;29709;52.396;16.796;2023-02-28T14:39:54;103157.83;;;6.74;46.44
44044;BME280;29709;52.396;16.796;2023-02-28T14:43:21;103154.38;;;6.71;46.28
44044;BME280;29709;52.396;16.796;2023-02-28T14:46:38;103153.42;;;6.72;46.64
44044;BME280;29709;52.396;16.796;2023-02-28T14:49:53;103157.12;;;6.71;47.22
44044;BME280;29709;52.396;16.796;2023-02-28T14:53:18;103161.06;;;6.65;47.34
44044;BME280;29709;52.396;16.796;2023-02-28T14:56:37;103160.96;;;6.66;47.80
44044;BME280;29709;52.396;16.796;2023-02-28T15:00:09;103162.30;;;6.59;47.27
44044;BME280;29709;52.396;16.796;2023-02-28T15:03:22;103161.03;;;6.49;47.17
44044;BME280;29709;52.396;16.796;2023-02-28T15:06:37;103155.90;;;6.43;46.59
44044;BME280;29709;52.396;16.796;2023-02-28T15:13:15;103154.73;;;6.31;46.42
44044;BME280;29709;52.396;16.796;2023-02-28T15:16:34;103150.91;;;6.18;45.96
44044;BME280;29709;52.396;16.796;2023-02-28T15:19:53;103145.85;;;6.11;45.77
44044;BME280;29709;52.396;16.796;2023-02-28T15:23:07;103140.21;;;6.14;46.96
44044;BME280;29709;52.396;16.796;2023-02-28T15:26:26;103132.49;;;6.22;46.56
44044;BME280;29709;52.396;16.796;2023-02-28T15:29:46;103131.12;;;6.30;47.50
44044;BME280;29709;52.396;16.796;2023-02-28T15:36:32;103133.46;;;6.21;48.81
44044;BME280;29709;52.396;16.796;2023-02-28T15:39:49;103131.96;;;6.15;49.21
44044;BME280;29709;52.396;16.796;2023-02-28T15:46:29;103136.73;;;5.94;50.45
44044;BME280;29709;52.396;16.796;2023-02-28T15:49:54;103141.80;;;5.83;50.77
44044;BME280;29709;52.396;16.796;2023-02-28T15:53:17;103142.86;;;5.80;50.75
44044;BME280;29709;52.396;16.796;2023-02-28T15:56:35;103152.27;;;5.75;50.49
44044;BME280;29709;52.396;16.796;2023-02-28T15:59:54;103154.41;;;5.68;51.16
44044;BME280;29709;52.396;16.796;2023-02-28T16:06:43;103158.96;;;5.50;52.29
44044;BME280;29709;52.396;16.796;2023-02-28T16:09:57;103155.52;;;5.47;52.21
44044;BME280;29709;52.396;16.796;2023-02-28T16:13:11;103148.87;;;5.53;51.96
44044;BME280;29709;52.396;16.796;2023-02-28T16:16:28;103143.88;;;5.43;52.86
44044;BME280;29709;52.396;16.796;2023-02-28T16:19:43;103154.45;;;5.32;53.03
44044;BME280;29709;52.396;16.796;2023-02-28T16:22:57;103159.16;;;5.29;53.11
44044;BME280;29709;52.396;16.796;2023-02-28T16:26:22;103155.88;;;5.22;53.39
44044;BME280;29709;52.396;16.796;2023-02-28T16:29:37;103160.55;;;5.01;53.73
44044;BME280;29709;52.396;16.796;2023-02-28T16:32:51;103162.91;;;4.90;52.92
44044;BME280;29709;52.396;16.796;2023-02-28T16:36:06;103166.50;;;4.72;52.67
44044;BME280;29709;52.396;16.796;2023-02-28T16:39:22;103160.07;;;4.54;52.61
44044;BME280;29709;52.396;16.796;2023-02-28T16:42:37;103168.47;;;4.49;52.22
44044;BME280;29709;52.396;16.796;2023-02-28T16:45:55;103165.06;;;4.44;52.67
44044;BME280;29709;52.396;16.796;2023-02-28T16:49:11;103173.53;;;4.38;52.51
44044;BME280;29709;52.396;16.796;2023-02-28T16:52:27;103169.88;;;4.38;52.84
44044;BME280;29709;52.396;16.796;2023-02-28T16:55:40;103173.56;;;4.37;52.77
44044;BME280;29709;52.396;16.796;2023-02-28T16:58:59;103174.94;;;4.26;53.08
44044;BME280;29709;52.396;16.796;2023-02-28T17:02:15;103172.67;;;4.17;53.34
44044;BME280;29709;52.396;16.796;2023-02-28T17:05:38;103174.22;;;4.02;53.37
44044;BME280;29709;52.396;16.796;2023-02-28T17:08:53;103174.02;;;3.87;54.36
44044;BME280;29709;52.396;16.796;2023-02-28T17:12:07;103176.19;;;3.79;54.27
44044;BME280;29709;52.396;16.796;2023-02-28T17:15:22;103179.37;;;3.68;54.99
44044;BME280;29709;52.396;16.796;2023-02-28T17:18:35;103179.69;;;3.60;54.41
44044;BME280;29709;52.396;16.796;2023-02-28T17:21:51;103175.52;;;3.52;55.36
44044;BME280;29709;52.396;16.796;2023-02-28T17:25:07;103175.52;;;3.52;55.76
44044;BME280;29709;52.396;16.796;2023-02-28T17:28:21;103177.87;;;3.39;56.00
44044;BME280;29709;52.396;16.796;2023-02-28T17:31:35;103184.78;;;3.26;55.60
44044;BME280;29709;52.396;16.796;2023-02-28T17:34:51;103193.16;;;3.19;56.29
44044;BME280;29709;52.396;16.796;2023-02-28T17:38:07;103188.82;;;3.15;55.43
44044;BME280;29709;52.396;16.796;2023-02-28T17:41:23;103182.35;;;2.96;57.60
44044;BME280;29709;52.396;16.796;2023-02-28T17:44:39;103186.50;;;2.83;57.11
44044;BME280;29709;52.396;16.796;2023-02-28T17:47:53;103190.59;;;2.71;57.19
44044;BME280;29709;52.396;16.796;2023-02-28T17:51:08;103185.20;;;2.70;58.13
44044;BME280;29709;52.396;16.796;2023-02-28T17:54:22;103195.41;;;2.63;58.10
44044;BME280;29709;52.396;16.796;2023-02-28T17:57:36;103189.58;;;2.50;58.39
44044;BME280;29709;52.396;16.796;2023-02-28T18:00:49;103201.41;;;2.48;58.40
44044;BME280;29709;52.396;16.796;2023-02-28T18:04:07;103204.37;;;2.42;58.08
44044;BME280;29709;52.396;16.796;2023-02-28T18:07:28;103206.53;;;2.32;58.66
44044;BME280;29709;52.396;16.796;2023-02-28T18:10:42;103217.54;;;2.27;59.18
44044;BME280;29709;52.396;16.796;2023-02-28T18:13:55;103209.46;;;2.26;57.79
44044;BME280;29709;52.396;16.796;2023-02-28T18:17:11;103214.83;;;2.02;59.40
44044;BME280;29709;52.396;16.796;2023-02-28T18:20:25;103214.27;;;1.93;58.90
44044;BME280;29709;52.396;16.796;2023-02-28T18:23:42;103208.29;;;1.83;60.25
44044;BME280;29709;52.396;16.796;2023-02-28T18:27:00;103209.40;;;1.78;59.76
44044;BME280;29709;52.396;16.796;2023-02-28T18:30:14;103200.57;;;1.71;59.51
44044;BME280;29709;52.396;16.796;2023-02-28T18:33:28;103199.83;;;1.66;59.09
44044;BME280;29709;52.396;16.796;2023-02-28T18:36:41;103200.18;;;1.57;60.23
44044;BME280;29709;52.396;16.796;2023-02-28T18:39:55;103208.33;;;1.55;61.47
44044;BME280;29709;52.396;16.796;2023-02-28T18:43:09;103212.61;;;1.62;61.10
44044;BME280;29709;52.396;16.796;2023-02-28T18:46:22;103211.72;;;1.62;61.04
44044;BME280;29709;52.396;16.796;2023-02-28T18:49:36;103207.31;;;1.59;60.67
44044;BME280;29709;52.396;16.796;2023-02-28T18:52:50;103203.78;;;1.56;61.22
44044;BME280;29709;52.396;16.796;2023-02-28T18:56:05;103196.59;;;1.55;59.42
44044;BME280;29709;52.396;16.796;2023-02-28T18:59:19;103203.26;;;1.44;62.64
44044;BME280;29709;52.396;16.796;2023-02-28T19:02:33;103197.18;;;1.38;62.06
44044;BME280;29709;52.396;16.796;2023-02-28T19:05:46;103189.99;;;1.37;62.07
44044;BME280;29709;52.396;16.796;2023-02-28T19:09:01;103187.37;;;1.34;62.10
44044;BME280;29709;52.396;16.796;2023-02-28T19:12:15;103184.00;;;1.27;61.45
44044;BME280;29709;52.396;16.796;2023-02-28T19:15:32;103176.05;;;1.21;62.25
44044;BME280;29709;52.396;16.796;2023-02-28T19:18:46;103174.23;;;1.22;61.84
44044;BME280;29709;52.396;16.796;2023-02-28T19:22:00;103176.05;;;1.21;61.19
44044;BME280;29709;52.396;16.796;2023-02-28T19:25:13;103168.43;;;1.06;60.23
44044;BME280;29709;52.396;16.796;2023-02-28T19:28:28;103161.55;;;0.96;64.25
44044;BME280;29709;52.396;16.796;2023-02-28T19:31:42;103165.41;;;0.87;63.18
44044;BME280;29709;52.396;16.796;2023-02-28T19:34:56;103164.66;;;0.82;63.45
44044;BME280;29709;52.396;16.796;2023-02-28T19:38:12;103161.95;;;0.82;63.53
44044;BME280;29709;52.396;16.796;2023-02-28T19:41:26;103159.12;;;0.86;63.64
44044;BME280;29709;52.396;16.796;2023-02-28T19:44:40;103159.95;;;0.89;63.19